Gotland Marieann — C6YL8 — position and weather

sailwx.info

Track history (hours):
 
Tides and Currents Weather Stations Pressure Air Temp Water Temp Dewpoint Dewpoint Depression Visibility Wind Speed Wind Dir Waves Ship Positions

Gotland Marieann

Last reported at 2018-Jan-09 05:08 UTC. Time now 2018-Jan-19 13:27 UTC.
Position N 28°52' W 015°05'.
Warning: this ship's position is 10 days out of date.

Length 183 m; draft 9.2 m.

Type: Ship (hazmat cat D). MMSI: 311037700.

Date/timePositionNaut miles runAvg speedWind from/ knotsBaromVisibWave heightAir tempDewpointWater temp
2018-Jan-09 05:08N 28°52' W 015°05'110.5
2018-Jan-09 05:00N 28°51' W 015°06'510.6
2018-Jan-09 04:30N 28°46' W 015°07'510.8
2018-Jan-09 04:00N 28°41' W 015°09'510.6
2018-Jan-09 03:30N 28°36' W 015°10'510.7
2018-Jan-09 03:00N 28°30' W 015°12'510.6
2018-Jan-09 02:30N 28°25' W 015°13'510.4
2018-Jan-09 02:00N 28°20' W 015°15'611.0
2018-Jan-09 01:30N 28°16' W 015°18'511.0
2018-Jan-09 01:00N 28°11' W 015°22'3 5.5
2018-Jan-09 00:29N 28°08' W 015°23'0 0.2
2018-Jan-08 23:59N 28°08' W 015°24'0 0.0
2018-Jan-08 23:29N 28°08' W 015°24'0 0.0
2018-Jan-08 22:59N 28°08' W 015°23'0 0.1
2018-Jan-08 22:29N 28°08' W 015°23'0 0.0
2018-Jan-08 21:59N 28°08' W 015°23'0 0.0
2018-Jan-08 21:29N 28°08' W 015°23'0 0.0
2018-Jan-08 20:59N 28°08' W 015°24'0 0.1
2018-Jan-08 20:29N 28°08' W 015°23'0 0.1
2018-Jan-08 19:59N 28°08' W 015°24'0 0.0
2018-Jan-08 19:20N 28°08' W 015°23'0 0.0
2018-Jan-08 18:50N 28°08' W 015°23'0 0.0
2018-Jan-08 18:20N 28°08' W 015°23'0 0.0
2018-Jan-08 17:53N 28°08' W 015°24'0 0.0
2018-Jan-08 17:23N 28°08' W 015°24'0 0.0
2018-Jan-08 16:53N 28°08' W 015°24'0 0.0
2018-Jan-08 16:23N 28°08' W 015°24'0 0.0
2018-Jan-08 15:53N 28°08' W 015°24'0 0.0
2018-Jan-08 15:26N 28°08' W 015°24'0 0.0
2018-Jan-08 14:56N 28°08' W 015°23'0 0.0
2018-Jan-08 14:26N 28°08' W 015°23'0 0.0
2018-Jan-08 13:56N 28°08' W 015°23'0 0.0
2018-Jan-08 13:11N 28°08' W 015°24'0 0.2
2018-Jan-08 12:56N 28°08' W 015°23'0 0.0
2018-Jan-08 12:29N 28°08' W 015°23'0 0.0
2018-Jan-08 11:59N 28°08' W 015°23'0 0.1
2018-Jan-08 11:29N 28°08' W 015°23'0 0.0
2018-Jan-08 10:59N 28°08' W 015°23'0 0.1
2018-Jan-08 10:29N 28°08' W 015°23'0 0.0
2018-Jan-08 09:59N 28°08' W 015°23'0 0.0
2018-Jan-08 09:29N 28°08' W 015°23'0 0.0
2018-Jan-08 08:47N 28°08' W 015°23'0 0.1
2018-Jan-08 08:29N 28°08' W 015°23'0 0.0
2018-Jan-08 07:59N 28°08' W 015°23'0 0.0
2018-Jan-08 07:29N 28°08' W 015°23'0 0.0
2018-Jan-08 06:59N 28°08' W 015°23'0 0.1
2018-Jan-08 06:29N 28°08' W 015°23'0 0.1
2018-Jan-08 05:59N 28°08' W 015°23'0 0.0
2018-Jan-08 05:20N 28°08' W 015°23'0 0.0
2018-Jan-08 04:50N 28°08' W 015°23'0 0.0
2018-Jan-08 04:20N 28°08' W 015°23'0 0.0
2018-Jan-08 03:53N 28°08' W 015°23'0 0.0
2018-Jan-08 03:23N 28°08' W 015°23'0 0.0
2018-Jan-08 02:53N 28°08' W 015°23'0 0.0
2018-Jan-08 02:23N 28°08' W 015°23'0 0.0
2018-Jan-08 01:53N 28°08' W 015°23'0 0.0
2018-Jan-08 01:26N 28°08' W 015°23'0 0.0
2018-Jan-08 00:56N 28°08' W 015°23'0 0.3
2018-Jan-08 00:26N 28°08' W 015°23'1 2.2
2018-Jan-08 00:00N 28°08' W 015°22'0 0.7
2018-Jan-07 23:30N 28°09' W 015°22'3 5.4
2018-Jan-07 23:00N 28°06' W 015°21'4 8.2
2018-Jan-07 22:30N 28°03' W 015°18'5 9.6
2018-Jan-07 22:00N 27°59' W 015°15'5 9.5
2018-Jan-07 21:30N 27°54' W 015°15'5 9.3
2018-Jan-07 21:00N 27°50' W 015°15'7 9.8
2018-Jan-07 20:14N 27°42' W 015°15'  
2018-Jan-02 15:04N 10°00' W 017°01'411.6
2018-Jan-02 14:46N 09°58' W 016°58'611.7
2018-Jan-02 14:17N 09°54' W 016°55'311.8
2018-Jan-02 14:00N 09°51' W 016°53'611.5
2018-Jan-02 13:30N 09°47' W 016°49'  
Track history (hours):
 
Tides and Currents Weather Stations Pressure Air Temp Water Temp Dewpoint Dewpoint Depression Visibility Wind Speed Wind Dir Waves Ship Positions

Gotland Marieann

Last reported at 2018-Jan-09 05:08 UTC. Time now 2018-Jan-19 13:27 UTC.
Position N 28°52' W 015°05'.
Warning: this ship's position is 10 days out of date.

Length 183 m; draft 9.2 m.

Type: Ship (hazmat cat D). MMSI: 311037700.

Date/timePositionNaut miles runAvg speedWind from/ knotsBaromVisibWave heightAir tempDewpointWater temp
2018-Jan-09 05:08N 28°52' W 015°05'110.5
2018-Jan-09 05:00N 28°51' W 015°06'510.6
2018-Jan-09 04:30N 28°46' W 015°07'510.8
2018-Jan-09 04:00N 28°41' W 015°09'510.6
2018-Jan-09 03:30N 28°36' W 015°10'510.7
2018-Jan-09 03:00N 28°30' W 015°12'510.6
2018-Jan-09 02:30N 28°25' W 015°13'510.4
2018-Jan-09 02:00N 28°20' W 015°15'611.0
2018-Jan-09 01:30N 28°16' W 015°18'511.0
2018-Jan-09 01:00N 28°11' W 015°22'3 5.5
2018-Jan-09 00:29N 28°08' W 015°23'0 0.2
2018-Jan-08 23:59N 28°08' W 015°24'0 0.0
2018-Jan-08 23:29N 28°08' W 015°24'0 0.0
2018-Jan-08 22:59N 28°08' W 015°23'0 0.1
2018-Jan-08 22:29N 28°08' W 015°23'0 0.0
2018-Jan-08 21:59N 28°08' W 015°23'0 0.0
2018-Jan-08 21:29N 28°08' W 015°23'0 0.0
2018-Jan-08 20:59N 28°08' W 015°24'0 0.1
2018-Jan-08 20:29N 28°08' W 015°23'0 0.1
2018-Jan-08 19:59N 28°08' W 015°24'0 0.0
2018-Jan-08 19:20N 28°08' W 015°23'0 0.0
2018-Jan-08 18:50N 28°08' W 015°23'0 0.0
2018-Jan-08 18:20N 28°08' W 015°23'0 0.0
2018-Jan-08 17:53N 28°08' W 015°24'0 0.0
2018-Jan-08 17:23N 28°08' W 015°24'0 0.0
2018-Jan-08 16:53N 28°08' W 015°24'0 0.0
2018-Jan-08 16:23N 28°08' W 015°24'0 0.0
2018-Jan-08 15:53N 28°08' W 015°24'0 0.0
2018-Jan-08 15:26N 28°08' W 015°24'0 0.0
2018-Jan-08 14:56N 28°08' W 015°23'0 0.0
2018-Jan-08 14:26N 28°08' W 015°23'0 0.0
2018-Jan-08 13:56N 28°08' W 015°23'0 0.0
2018-Jan-08 13:11N 28°08' W 015°24'0 0.2
2018-Jan-08 12:56N 28°08' W 015°23'0 0.0
2018-Jan-08 12:29N 28°08' W 015°23'0 0.0
2018-Jan-08 11:59N 28°08' W 015°23'0 0.1
2018-Jan-08 11:29N 28°08' W 015°23'0 0.0
2018-Jan-08 10:59N 28°08' W 015°23'0 0.1
2018-Jan-08 10:29N 28°08' W 015°23'0 0.0
2018-Jan-08 09:59N 28°08' W 015°23'0 0.0
2018-Jan-08 09:29N 28°08' W 015°23'0 0.0
2018-Jan-08 08:47N 28°08' W 015°23'0 0.1
2018-Jan-08 08:29N 28°08' W 015°23'0 0.0
2018-Jan-08 07:59N 28°08' W 015°23'0 0.0
2018-Jan-08 07:29N 28°08' W 015°23'0 0.0
2018-Jan-08 06:59N 28°08' W 015°23'0 0.1
2018-Jan-08 06:29N 28°08' W 015°23'0 0.1
2018-Jan-08 05:59N 28°08' W 015°23'0 0.0
2018-Jan-08 05:20N 28°08' W 015°23'0 0.0
2018-Jan-08 04:50N 28°08' W 015°23'0 0.0
2018-Jan-08 04:20N 28°08' W 015°23'0 0.0
2018-Jan-08 03:53N 28°08' W 015°23'0 0.0
2018-Jan-08 03:23N 28°08' W 015°23'0 0.0
2018-Jan-08 02:53N 28°08' W 015°23'0 0.0
2018-Jan-08 02:23N 28°08' W 015°23'0 0.0
2018-Jan-08 01:53N 28°08' W 015°23'0 0.0
2018-Jan-08 01:26N 28°08' W 015°23'0 0.0
2018-Jan-08 00:56N 28°08' W 015°23'0 0.3
2018-Jan-08 00:26N 28°08' W 015°23'1 2.2
2018-Jan-08 00:00N 28°08' W 015°22'0 0.7
2018-Jan-07 23:30N 28°09' W 015°22'3 5.4
2018-Jan-07 23:00N 28°06' W 015°21'4 8.2
2018-Jan-07 22:30N 28°03' W 015°18'5 9.6
2018-Jan-07 22:00N 27°59' W 015°15'5 9.5
2018-Jan-07 21:30N 27°54' W 015°15'5 9.3
2018-Jan-07 21:00N 27°50' W 015°15'7 9.8
2018-Jan-07 20:14N 27°42' W 015°15'  
2018-Jan-02 15:04N 10°00' W 017°01'411.6
2018-Jan-02 14:46N 09°58' W 016°58'611.7
2018-Jan-02 14:17N 09°54' W 016°55'311.8
2018-Jan-02 14:00N 09°51' W 016°53'611.5
2018-Jan-02 13:30N 09°47' W 016°49'  

Dump ship's entire track history